Aviation Digital Data Service (ADDS)

Output produced by METARs form (1812 UTC 14 August 2018)
found at http://www.aviationweather.gov/adds/metars/
 
VCBI 141710Z 25007KT 9999 SCT018 26/24 Q1011 NOSIG
TAF VCBI 141540Z 1418/1524 25012KT 9999 SCT016 TX29/1508Z TN25/1500Z 
     TEMPO 1423/1503 1510/1515 6000 26012G25KT SHRA SCT012 BKN016 FEW020CB